createdAt,value
2018-06-11T00:00:18.307Z,19.52
2018-06-11T00:01:18.372Z,19.45
2018-06-11T00:02:18.444Z,19.45
2018-06-11T00:03:18.508Z,19.47
2018-06-11T00:04:18.569Z,19.39
2018-06-11T00:05:18.636Z,19.41
2018-06-11T00:06:18.701Z,19.39
2018-06-11T00:07:18.772Z,19.36
2018-06-11T00:08:18.840Z,19.33
2018-06-11T00:09:18.900Z,19.21
2018-06-11T00:10:18.964Z,19.31
2018-06-11T00:11:19.032Z,19.26
2018-06-11T00:12:19.121Z,19.26
2018-06-11T00:13:19.164Z,19.19
2018-06-11T00:14:19.236Z,19.22
2018-06-11T00:15:19.297Z,19.18
2018-06-11T00:16:19.360Z,19.21
2018-06-11T00:17:19.432Z,19.19
2018-06-11T00:18:19.500Z,19.14
2018-06-11T00:19:19.561Z,19.15
2018-06-11T00:20:19.625Z,19.12
2018-06-11T00:21:19.693Z,19.11
2018-06-11T00:22:19.765Z,18.98
2018-06-11T00:23:19.829Z,19.00
2018-06-11T00:24:19.889Z,19.02
2018-06-11T00:25:19.957Z,18.99
2018-06-11T00:26:20.021Z,18.98
2018-06-11T00:27:20.326Z,18.95
2018-06-11T00:28:20.153Z,18.98
2018-06-11T00:29:20.221Z,18.95
2018-06-11T00:30:20.285Z,18.93
2018-06-11T00:31:20.349Z,18.93
2018-06-11T00:32:20.421Z,18.90
2018-06-11T00:33:20.489Z,18.93
2018-06-11T00:34:20.549Z,18.90
2018-06-11T00:35:20.613Z,18.89
2018-06-11T00:36:20.681Z,18.90
2018-06-11T00:37:20.753Z,18.95
2018-06-11T00:38:20.817Z,18.93
2018-06-11T00:39:20.881Z,18.86
2018-06-11T00:40:20.949Z,18.84
2018-06-11T00:41:21.013Z,18.92
2018-06-11T00:42:21.093Z,18.83
2018-06-11T00:43:21.137Z,18.84
2018-06-11T00:44:21.205Z,18.84
2018-06-11T00:45:21.273Z,18.78
2018-06-11T00:46:21.337Z,18.83
2018-06-11T00:47:21.414Z,18.81
2018-06-11T00:48:21.477Z,18.88
2018-06-11T00:49:21.538Z,18.84
2018-06-11T00:50:21.601Z,18.84
2018-06-11T00:51:21.665Z,18.83
2018-06-11T00:52:21.742Z,18.93
2018-06-11T00:53:21.806Z,18.78
2018-06-11T00:54:21.865Z,18.92
2018-06-11T00:55:21.931Z,18.95
2018-06-11T00:56:21.998Z,18.90
2018-06-11T00:57:22.070Z,18.89
2018-06-11T00:58:22.138Z,18.93
2018-06-11T00:59:22.194Z,18.90
2018-06-11T01:00:22.258Z,18.95
2018-06-11T01:01:22.326Z,18.95
2018-06-11T01:02:22.398Z,18.95
2018-06-11T01:03:22.462Z,18.83
2018-06-11T01:04:22.523Z,18.83
2018-06-11T01:05:22.591Z,18.88
2018-06-11T01:06:22.655Z,18.88
2018-06-11T01:07:22.727Z,18.83
2018-06-11T01:08:22.795Z,18.81
2018-06-11T01:09:22.855Z,18.88
2018-06-11T01:10:22.918Z,18.81
2018-06-11T01:11:22.983Z,18.77
2018-06-11T01:12:23.059Z,18.74
2018-06-11T01:13:23.124Z,18.71
2018-06-11T01:14:23.192Z,18.73
2018-06-11T01:15:23.251Z,18.74
2018-06-11T01:16:23.311Z,18.71
2018-06-11T01:17:23.535Z,18.63
2018-06-11T01:18:23.447Z,18.65
2018-06-11T01:19:23.512Z,18.74
2018-06-11T01:20:23.576Z,18.65
2018-06-11T01:21:23.644Z,18.63
2018-06-11T01:22:23.717Z,18.59
2018-06-11T01:23:23.779Z,18.59
2018-06-11T01:24:23.839Z,18.56
2018-06-11T01:25:23.903Z,18.43
2018-06-11T01:26:23.972Z,18.52
2018-06-11T01:27:24.044Z,18.43
2018-06-11T01:28:24.108Z,18.53
2018-06-11T01:29:24.168Z,18.49
2018-06-11T01:30:24.232Z,18.45
2018-06-11T01:31:24.300Z,18.49
2018-06-11T01:32:24.372Z,18.53
2018-06-11T01:33:24.440Z,18.52
2018-06-11T01:34:24.496Z,18.44
2018-06-11T01:35:24.559Z,18.47
2018-06-11T01:36:24.628Z,18.37
2018-06-11T01:37:24.700Z,18.38
2018-06-11T01:38:24.772Z,18.41
2018-06-11T01:39:24.824Z,18.44
2018-06-11T01:40:24.892Z,18.37
2018-06-11T01:41:24.956Z,18.38
2018-06-11T01:42:25.029Z,18.37
2018-06-11T01:43:25.093Z,18.37
2018-06-11T01:44:25.157Z,18.33
2018-06-11T01:45:25.220Z,18.43
2018-06-11T01:46:25.284Z,18.38
2018-06-11T01:47:25.361Z,18.37
2018-06-11T01:48:25.433Z,18.31
2018-06-11T01:49:25.480Z,18.33
2018-06-11T01:50:25.545Z,18.34
2018-06-11T01:51:25.613Z,18.25
2018-06-11T01:52:25.685Z,18.22
2018-06-11T01:53:25.757Z,18.22
2018-06-11T01:54:25.813Z,18.26
2018-06-11T01:55:25.877Z,18.19
2018-06-11T01:56:25.941Z,18.19
2018-06-11T01:57:26.013Z,18.19
2018-06-11T01:58:26.083Z,18.18
2018-06-11T01:59:26.137Z,18.23
2018-06-11T02:00:26.205Z,18.18
2018-06-11T02:01:26.269Z,18.20
2018-06-11T02:02:26.529Z,18.16
2018-06-11T02:03:26.401Z,18.15
2018-06-11T02:04:26.465Z,18.15
2018-06-11T02:05:26.534Z,18.11
2018-06-11T02:06:26.594Z,18.03
2018-06-11T02:07:26.669Z,18.05
2018-06-11T02:08:26.734Z,18.03
2018-06-11T02:09:26.794Z,18.04
2018-06-11T02:10:26.858Z,18.05
2018-06-11T02:11:26.926Z,18.04
2018-06-11T02:12:26.997Z,18.03
2018-06-11T02:13:27.066Z,17.98
2018-06-11T02:14:27.122Z,17.98
2018-06-11T02:15:27.186Z,17.95
2018-06-11T02:16:27.254Z,17.90
2018-06-11T02:17:27.318Z,17.95
2018-06-11T02:18:27.751Z,17.86
2018-06-11T02:19:27.450Z,17.89
2018-06-11T02:20:27.518Z,17.87
2018-06-11T02:21:27.582Z,17.83
2018-06-11T02:22:27.646Z,17.80
2018-06-11T02:23:27.710Z,17.80
2018-06-11T02:24:27.934Z,17.74
2018-06-11T02:25:27.842Z,17.71
2018-06-11T02:26:27.906Z,17.68
2018-06-11T02:27:27.979Z,17.76
2018-06-11T02:28:28.039Z,17.74
2018-06-11T02:29:28.259Z,17.78
2018-06-11T02:30:28.173Z,17.65
2018-06-11T02:31:28.235Z,17.65
2018-06-11T02:32:28.303Z,17.57
2018-06-11T02:33:28.366Z,17.74
2018-06-11T02:34:28.439Z,17.70
2018-06-11T02:35:28.503Z,17.64
2018-06-11T02:36:28.567Z,17.68
2018-06-11T02:37:28.631Z,17.67
2018-06-11T02:38:28.695Z,17.70
2018-06-11T02:39:28.767Z,17.64
2018-06-11T02:40:28.831Z,17.63
2018-06-11T02:41:28.895Z,17.63
2018-06-11T02:42:28.956Z,17.67
2018-06-11T02:43:29.023Z,17.70
2018-06-11T02:44:29.199Z,17.59
2018-06-11T02:45:29.156Z,17.60
2018-06-11T02:46:29.221Z,17.57
2018-06-11T02:47:29.283Z,17.52
2018-06-11T02:48:29.351Z,17.51
2018-06-11T02:49:29.423Z,17.49
2018-06-11T02:50:29.488Z,17.63
2018-06-11T02:51:29.544Z,17.56
2018-06-11T02:52:29.612Z,17.52
2018-06-11T02:53:29.676Z,17.57
2018-06-11T02:54:29.751Z,17.57
2018-06-11T02:55:29.811Z,17.59
2018-06-11T02:56:29.872Z,17.51
2018-06-11T02:57:29.940Z,17.51
2018-06-11T02:58:30.004Z,17.49
2018-06-11T02:59:30.224Z,17.48
2018-06-11T03:00:30.136Z,17.44
2018-06-11T03:01:30.200Z,17.44
2018-06-11T03:02:30.268Z,17.39
2018-06-11T03:03:30.332Z,17.42
2018-06-11T03:04:30.404Z,17.45
2018-06-11T03:05:30.468Z,17.39
2018-06-11T03:06:30.525Z,17.42
2018-06-11T03:07:30.592Z,17.45
2018-06-11T03:08:30.656Z,17.39
2018-06-11T03:09:30.729Z,17.38
2018-06-11T03:10:30.792Z,17.41
2018-06-11T03:11:30.852Z,17.34
2018-06-11T03:12:30.921Z,17.42
2018-06-11T03:13:30.988Z,17.38
2018-06-11T03:14:31.056Z,17.39
2018-06-11T03:15:31.130Z,17.45
2018-06-11T03:16:31.181Z,17.33
2018-06-11T03:17:31.245Z,17.31
2018-06-11T03:18:31.310Z,17.33
2018-06-11T03:19:31.383Z,17.34
2018-06-11T03:20:31.448Z,17.30
2018-06-11T03:21:31.504Z,17.36
2018-06-11T03:22:31.573Z,17.39
2018-06-11T03:23:31.636Z,17.33
2018-06-11T03:24:31.708Z,17.24
2018-06-11T03:25:31.773Z,17.30
2018-06-11T03:26:31.833Z,17.26
2018-06-11T03:27:31.900Z,17.33
2018-06-11T03:28:31.963Z,17.27
2018-06-11T03:29:32.033Z,17.27
2018-06-11T03:30:32.101Z,17.34
2018-06-11T03:31:32.157Z,17.30
2018-06-11T03:32:32.225Z,17.33
2018-06-11T03:33:32.290Z,17.33
2018-06-11T03:34:32.516Z,17.30
2018-06-11T03:35:32.421Z,17.29
2018-06-11T03:36:32.485Z,17.33
2018-06-11T03:37:32.550Z,17.31
2018-06-11T03:38:32.613Z,17.29
2018-06-11T03:39:32.685Z,17.30
2018-06-11T03:40:32.753Z,17.29
2018-06-11T03:41:32.809Z,17.29
2018-06-11T03:42:32.877Z,17.30
2018-06-11T03:43:32.945Z,17.24
2018-06-11T03:44:33.013Z,17.31
2018-06-11T03:45:33.078Z,17.23
2018-06-11T03:46:33.138Z,17.34
2018-06-11T03:47:33.201Z,17.31
2018-06-11T03:48:33.265Z,17.22
2018-06-11T03:49:33.769Z,17.31
2018-06-11T03:50:33.398Z,17.23
2018-06-11T03:51:33.462Z,17.29
2018-06-11T03:52:33.553Z,17.26
2018-06-11T03:53:33.596Z,17.29
2018-06-11T03:54:33.658Z,17.31
2018-06-11T03:55:33.742Z,17.30
2018-06-11T03:56:33.790Z,17.30
2018-06-11T03:57:33.854Z,17.34
2018-06-11T03:58:33.918Z,17.31
2018-06-11T03:59:33.990Z,17.30
2018-06-11T04:00:34.058Z,17.31
2018-06-11T04:01:34.122Z,17.29
2018-06-11T04:02:34.178Z,17.27
2018-06-11T04:03:34.258Z,17.34
2018-06-11T04:04:34.310Z,17.26
2018-06-11T04:05:34.386Z,17.31
2018-06-11T04:06:34.446Z,17.30
2018-06-11T04:07:34.507Z,17.34
2018-06-11T04:08:34.571Z,17.29
2018-06-11T04:09:34.639Z,17.31
2018-06-11T04:10:34.706Z,17.34
2018-06-11T04:11:34.775Z,17.41
2018-06-11T04:12:34.831Z,17.45
2018-06-11T04:13:34.898Z,17.39
2018-06-11T04:14:34.963Z,17.42
2018-06-11T04:15:35.035Z,17.48
2018-06-11T04:16:35.099Z,17.45
2018-06-11T04:17:35.167Z,17.46
2018-06-11T04:18:35.223Z,17.51
2018-06-11T04:19:35.288Z,17.49
2018-06-11T04:20:35.367Z,17.45
2018-06-11T04:21:35.425Z,17.52
2018-06-11T04:22:35.485Z,17.56
2018-06-11T04:23:35.551Z,17.56
2018-06-11T04:24:35.615Z,17.57
2018-06-11T04:25:35.687Z,17.70
2018-06-11T04:26:35.751Z,17.70
2018-06-11T04:27:35.812Z,17.68
2018-06-11T04:28:35.875Z,17.65
2018-06-11T04:29:35.944Z,17.72
2018-06-11T04:30:36.054Z,17.65
2018-06-11T04:31:36.080Z,17.72
2018-06-11T04:32:36.136Z,17.68
2018-06-11T04:33:36.204Z,17.78
2018-06-11T04:34:36.268Z,17.79
2018-06-11T04:35:36.340Z,17.76
2018-06-11T04:36:36.403Z,17.76
2018-06-11T04:37:36.464Z,17.94
2018-06-11T04:38:36.527Z,17.92
2018-06-11T04:39:36.611Z,17.94
2018-06-11T04:40:36.668Z,18.04
2018-06-11T04:41:36.732Z,18.05
2018-06-11T04:42:36.792Z,18.10
2018-06-11T04:43:36.856Z,18.19
2018-06-11T04:44:36.924Z,18.25
2018-06-11T04:45:36.997Z,18.26
2018-06-11T04:46:37.062Z,18.33
2018-06-11T04:47:37.120Z,18.33
2018-06-11T04:48:37.184Z,18.31
2018-06-11T04:49:37.252Z,18.34
2018-06-11T04:50:37.464Z,18.29
2018-06-11T04:51:37.380Z,18.38
2018-06-11T04:52:37.448Z,18.37
2018-06-11T04:53:37.513Z,18.40
2018-06-11T04:54:37.576Z,18.53
2018-06-11T04:55:37.648Z,18.55
2018-06-11T04:56:37.716Z,18.52
2018-06-11T04:57:37.777Z,18.53
2018-06-11T04:58:37.840Z,18.55
2018-06-11T04:59:37.909Z,18.50
2018-06-11T05:00:37.985Z,18.59
2018-06-11T05:01:38.050Z,18.62
2018-06-11T05:02:38.107Z,18.60
2018-06-11T05:03:38.168Z,18.62
2018-06-11T05:04:38.236Z,18.66
2018-06-11T05:05:38.324Z,18.71
2018-06-11T05:06:38.370Z,18.73
2018-06-11T05:07:38.432Z,18.74
2018-06-11T05:08:38.501Z,18.84
2018-06-11T05:09:38.565Z,18.90
2018-06-11T05:10:38.637Z,18.86
2018-06-11T05:11:38.705Z,18.95
2018-06-11T05:12:38.765Z,19.00
2018-06-11T05:13:38.829Z,19.00
2018-06-11T05:14:38.897Z,19.07
2018-06-11T05:15:38.969Z,18.92
2018-06-11T05:16:39.037Z,18.96
2018-06-11T05:17:39.097Z,18.98
2018-06-11T05:18:39.162Z,18.98
2018-06-11T05:19:39.230Z,19.02
2018-06-11T05:20:39.293Z,19.04
2018-06-11T05:21:39.470Z,19.18
2018-06-11T05:22:39.426Z,19.16
2018-06-11T05:23:39.493Z,19.24
2018-06-11T05:24:39.557Z,19.24
2018-06-11T05:25:39.625Z,19.36
2018-06-11T05:26:39.722Z,19.16
2018-06-11T05:27:39.770Z,19.29
2018-06-11T05:28:39.828Z,19.21
2018-06-11T05:29:39.890Z,19.21
2018-06-11T05:30:39.962Z,19.34
2018-06-11T05:31:40.034Z,19.34
2018-06-11T05:32:40.098Z,19.30
2018-06-11T05:33:40.157Z,19.37
2018-06-11T05:34:40.246Z,19.45
2018-06-11T05:35:40.291Z,19.45
2018-06-11T05:36:40.366Z,19.58
2018-06-11T05:37:40.431Z,19.66
2018-06-11T05:38:40.491Z,19.67
2018-06-11T05:39:40.554Z,19.69
2018-06-11T05:40:40.624Z,19.77
2018-06-11T05:41:40.699Z,19.81
2018-06-11T05:42:40.763Z,19.79
2018-06-11T05:43:40.827Z,19.91
2018-06-11T05:44:40.934Z,20.04
2018-06-11T05:45:40.961Z,20.13
2018-06-11T05:46:41.031Z,20.21
2018-06-11T05:47:41.105Z,20.14
2018-06-11T05:48:41.159Z,20.22
2018-06-11T05:49:41.227Z,20.22
2018-06-11T05:50:41.294Z,20.37
2018-06-11T05:51:41.363Z,20.34
2018-06-11T05:52:41.431Z,20.19
2018-06-11T05:53:41.494Z,20.37
2018-06-11T05:54:41.559Z,20.58
2018-06-11T05:55:41.629Z,20.60
2018-06-11T05:56:41.699Z,20.62
2018-06-11T05:57:41.768Z,20.67
2018-06-11T05:58:41.827Z,20.70
2018-06-11T05:59:41.895Z,20.69
2018-06-11T06:00:41.964Z,20.87
2018-06-11T06:01:42.036Z,20.90
2018-06-11T06:02:42.106Z,20.84
2018-06-11T06:03:42.164Z,21.00
2018-06-11T06:04:42.231Z,21.09
2018-06-11T06:05:42.299Z,21.21
2018-06-11T06:06:42.376Z,20.95
2018-06-11T06:07:42.445Z,20.95
2018-06-11T06:08:42.557Z,20.93
2018-06-11T06:09:42.571Z,20.93
2018-06-11T06:10:42.640Z,21.06
2018-06-11T06:11:42.712Z,21.09
2018-06-11T06:12:42.781Z,21.09
2018-06-11T06:13:42.843Z,21.46
2018-06-11T06:14:42.912Z,22.18
2018-06-11T06:15:42.980Z,22.41
2018-06-11T06:16:43.056Z,22.85
2018-06-11T06:17:43.124Z,22.98
2018-06-11T06:18:43.184Z,23.21
2018-06-11T06:19:43.256Z,23.46
2018-06-11T06:20:43.326Z,23.56
2018-06-11T06:21:43.404Z,23.56
2018-06-11T06:22:43.472Z,23.50
2018-06-11T06:23:43.536Z,23.56
2018-06-11T06:24:43.610Z,23.68
2018-06-11T06:25:43.678Z,23.91
2018-06-11T06:26:43.790Z,24.28
2018-06-11T06:27:43.828Z,24.33
2018-06-11T06:28:43.893Z,24.53
2018-06-11T06:29:43.964Z,24.54
2018-06-11T06:30:44.037Z,24.61
2018-06-11T06:31:44.109Z,24.92
2018-06-11T06:32:44.212Z,25.16
2018-06-11T06:33:44.253Z,25.47
2018-06-11T06:34:44.390Z,25.69
2018-06-11T06:35:44.405Z,26.00
2018-06-11T06:36:44.473Z,25.93
2018-06-11T06:37:44.553Z,26.16
2018-06-11T06:38:44.629Z,26.31
2018-06-11T06:39:44.702Z,26.74
2018-06-11T06:40:44.770Z,26.63
2018-06-11T06:41:44.845Z,26.41
2018-06-11T06:42:44.929Z,26.55
2018-06-11T06:43:45.002Z,26.40
2018-06-11T06:44:45.070Z,26.62
2018-06-11T06:45:45.145Z,26.96
2018-06-11T06:46:45.222Z,26.77
2018-06-11T06:47:45.320Z,27.27
2018-06-11T06:48:45.369Z,26.89
2018-06-11T06:49:45.450Z,26.68
2018-06-11T06:50:45.522Z,26.48
2018-06-11T06:51:45.598Z,26.53
2018-06-11T06:52:45.744Z,26.34
2018-06-11T06:53:45.854Z,26.41
2018-06-11T06:54:45.826Z,26.95
2018-06-11T06:55:45.902Z,27.27
2018-06-11T06:56:45.980Z,27.52
2018-06-11T06:57:46.058Z,27.86
2018-06-11T06:58:46.135Z,28.17
2018-06-11T06:59:46.206Z,27.95
2018-06-11T07:00:46.282Z,28.35
2018-06-11T07:01:46.358Z,28.44
2018-06-11T07:02:46.593Z,28.63
2018-06-11T07:03:46.570Z,28.30
2018-06-11T07:04:46.593Z,28.52
2018-06-11T07:05:46.666Z,28.62
2018-06-11T07:06:46.743Z,28.56
2018-06-11T07:07:46.830Z,28.17
2018-06-11T07:08:46.908Z,28.17
2018-06-11T07:09:46.975Z,28.48
2018-06-11T07:10:47.054Z,28.07
2018-06-11T07:11:47.130Z,27.67
2018-06-11T07:12:47.223Z,27.45
2018-06-11T07:13:47.322Z,27.45
2018-06-11T07:14:47.364Z,27.75
2018-06-11T07:15:47.444Z,27.70
2018-06-11T07:16:47.519Z,28.23
2018-06-11T07:17:47.612Z,27.74
2018-06-11T07:18:47.683Z,27.95
2018-06-11T07:19:47.751Z,28.22
2018-06-11T07:20:47.843Z,28.17
2018-06-11T07:21:47.912Z,28.47
2018-06-11T07:22:47.995Z,28.42
2018-06-11T07:23:48.151Z,28.63
2018-06-11T07:24:48.143Z,28.74
2018-06-11T07:25:48.223Z,29.26
2018-06-11T07:26:48.302Z,29.45
2018-06-11T07:27:48.379Z,29.59
2018-06-11T07:28:48.471Z,29.60
2018-06-11T07:29:48.540Z,29.57
2018-06-11T07:30:48.619Z,30.02
2018-06-11T07:31:48.692Z,30.25
2018-06-11T07:32:48.771Z,30.94
2018-06-11T07:33:48.856Z,30.32
2018-06-11T07:34:48.936Z,30.16
2018-06-11T07:35:49.008Z,30.44
2018-06-11T07:36:49.088Z,31.03
2018-06-11T07:37:49.168Z,30.18
2018-06-11T07:38:49.498Z,30.02
2018-06-11T07:39:49.328Z,30.10
2018-06-11T07:40:49.408Z,29.53
2018-06-11T07:41:49.483Z,29.41
2018-06-11T07:42:49.564Z,29.20
2018-06-11T07:43:49.656Z,28.86
2018-06-11T07:44:49.728Z,28.78
2018-06-11T07:45:49.809Z,28.37
2018-06-11T07:46:49.883Z,28.20
2018-06-11T07:47:49.960Z,27.95
2018-06-11T07:48:50.045Z,28.12
2018-06-11T07:49:50.125Z,27.92
2018-06-11T07:50:50.201Z,27.52
2018-06-11T07:51:50.274Z,27.67
2018-06-11T07:52:50.355Z,27.48
2018-06-11T07:53:50.453Z,27.12
2018-06-11T07:54:50.509Z,27.51
2018-06-11T07:55:50.585Z,27.27
2018-06-11T07:56:50.661Z,27.21
2018-06-11T07:57:50.741Z,27.14
2018-06-11T07:58:50.821Z,27.32
2018-06-11T07:59:50.918Z,27.59
2018-06-11T08:00:50.969Z,28.15
2018-06-11T08:01:51.045Z,28.10
2018-06-11T08:02:51.121Z,28.66
2018-06-11T08:03:51.349Z,28.69
2018-06-11T08:04:51.277Z,28.96
2018-06-11T08:05:51.353Z,29.14
2018-06-11T08:06:51.429Z,29.61
2018-06-11T08:07:51.509Z,29.78
2018-06-11T08:08:51.593Z,30.08
2018-06-11T08:09:51.670Z,30.31
2018-06-11T08:10:51.746Z,30.57
2018-06-11T08:11:51.817Z,30.81
2018-06-11T08:12:51.901Z,30.78
2018-06-11T08:13:51.981Z,30.77
2018-06-11T08:14:52.058Z,31.07
2018-06-11T08:15:52.130Z,31.21
2018-06-11T08:16:52.210Z,31.17
2018-06-11T08:17:52.289Z,29.94
2018-06-11T08:18:52.405Z,29.69
2018-06-11T08:19:52.441Z,29.61
2018-06-11T08:20:52.569Z,29.32
2018-06-11T08:21:52.597Z,29.44
2018-06-11T08:22:52.678Z,29.60
2018-06-11T08:23:52.761Z,29.50
2018-06-11T08:24:52.838Z,29.44
2018-06-11T08:25:52.909Z,29.61
2018-06-11T08:26:52.986Z,29.51
2018-06-11T08:27:53.605Z,28.97
2018-06-11T08:28:53.470Z,28.59
2018-06-11T08:29:53.230Z,28.89
2018-06-11T08:30:53.478Z,29.01
2018-06-11T08:31:53.398Z,29.07
2018-06-11T08:32:53.454Z,29.07
2018-06-11T08:33:53.558Z,28.66
2018-06-11T08:34:53.610Z,28.48
2018-06-11T08:35:53.838Z,28.33
2018-06-11T08:36:53.759Z,27.87
2018-06-11T08:37:53.834Z,27.42
2018-06-11T08:38:53.926Z,27.08
2018-06-11T08:39:53.994Z,26.84
2018-06-11T08:40:54.063Z,26.65
2018-06-11T08:41:54.142Z,26.40
2018-06-11T08:42:54.216Z,26.26
2018-06-11T08:43:54.306Z,26.73
2018-06-11T08:44:54.367Z,26.66
2018-06-11T08:45:54.437Z,26.66
2018-06-11T08:46:54.515Z,26.40
2018-06-11T08:47:54.591Z,26.41
2018-06-11T08:48:54.671Z,26.74
2018-06-11T08:49:54.747Z,26.65
2018-06-11T08:50:54.811Z,26.60
2018-06-11T08:51:54.887Z,26.77
2018-06-11T08:52:54.969Z,26.88
2018-06-11T08:53:55.048Z,27.21
2018-06-11T08:54:55.123Z,27.02
2018-06-11T08:55:55.188Z,27.55
2018-06-11T08:56:55.259Z,28.33
2018-06-11T08:57:55.335Z,28.47
2018-06-11T08:58:55.416Z,28.66
2018-06-11T08:59:55.599Z,28.85
2018-06-11T09:00:55.560Z,29.12
2018-06-11T09:01:55.635Z,28.85
2018-06-11T09:02:55.710Z,28.63
2018-06-11T09:03:55.792Z,28.60
2018-06-11T09:04:55.867Z,28.56
2018-06-11T09:05:55.936Z,28.45
2018-06-11T09:06:56.008Z,29.05
2018-06-11T09:07:56.084Z,29.45
2018-06-11T09:08:56.316Z,30.13
2018-06-11T09:09:56.236Z,30.53
2018-06-11T09:10:56.312Z,30.84
2018-06-11T09:11:56.393Z,30.85
2018-06-11T09:12:56.464Z,30.66
2018-06-11T09:13:56.560Z,30.83
2018-06-11T09:14:56.620Z,30.83
2018-06-11T09:15:56.692Z,31.40
2018-06-11T09:16:56.771Z,31.49
2018-06-11T09:17:56.854Z,31.42
2018-06-11T09:18:56.929Z,31.64
2018-06-11T09:19:57.004Z,31.09
2018-06-11T09:20:57.085Z,30.83
2018-06-11T09:21:57.157Z,31.21
2018-06-11T09:22:57.229Z,31.34
2018-06-11T09:23:57.418Z,31.64
2018-06-11T09:24:57.388Z,31.58
2018-06-11T09:25:57.467Z,30.87
2018-06-11T09:26:57.529Z,30.92
2018-06-11T09:27:57.613Z,30.69
2018-06-11T09:28:57.697Z,29.88
2018-06-11T09:29:57.773Z,29.95
2018-06-11T09:30:57.851Z,29.24
2018-06-11T09:31:57.921Z,29.14
2018-06-11T09:32:57.998Z,29.13
2018-06-11T09:33:58.109Z,28.96
2018-06-11T09:34:58.148Z,28.69
2018-06-11T09:35:58.225Z,28.81
2018-06-11T09:36:58.301Z,28.82
2018-06-11T09:37:58.380Z,28.17
2018-06-11T09:38:58.457Z,28.64
2018-06-11T09:39:58.537Z,28.69
2018-06-11T09:40:58.601Z,28.86
2018-06-11T09:41:58.679Z,29.20
2018-06-11T09:42:58.753Z,27.85
2018-06-11T09:43:58.940Z,28.10
2018-06-11T09:44:58.910Z,28.76
2018-06-11T09:45:58.994Z,29.16
2018-06-11T09:46:59.054Z,28.91
2018-06-11T09:47:59.130Z,28.81
2018-06-11T09:48:59.247Z,28.97
2018-06-11T09:49:59.277Z,29.35
2018-06-11T09:50:59.360Z,29.24
2018-06-11T09:51:59.430Z,29.66
2018-06-11T09:52:59.502Z,28.97
2018-06-11T09:53:59.586Z,27.89
2018-06-11T09:54:59.662Z,27.25
2018-06-11T09:55:59.730Z,26.62
2018-06-11T09:56:59.802Z,26.71
2018-06-11T09:57:59.878Z,26.93
2018-06-11T09:58:59.960Z,27.40
2018-06-11T10:00:00.039Z,27.42
2018-06-11T10:01:00.101Z,27.58
2018-06-11T10:02:00.174Z,27.78
2018-06-11T10:03:00.247Z,28.69
2018-06-11T10:04:00.433Z,28.76
2018-06-11T10:05:00.394Z,28.23
2018-06-11T10:06:00.471Z,27.54
2018-06-11T10:07:00.543Z,27.86
2018-06-11T10:08:00.615Z,28.08
2018-06-11T10:09:00.698Z,28.10
2018-06-11T10:10:00.770Z,27.93
2018-06-11T10:11:00.839Z,28.11
2018-06-11T10:12:00.919Z,27.82
2018-06-11T10:13:00.983Z,28.01
2018-06-11T10:14:01.063Z,28.42
2018-06-11T10:15:01.138Z,28.89
2018-06-11T10:16:01.203Z,29.26
2018-06-11T10:17:01.279Z,29.23
2018-06-11T10:18:01.353Z,28.84
2018-06-11T10:19:01.450Z,28.32
2018-06-11T10:20:01.509Z,28.26
2018-06-11T10:21:01.576Z,28.38
2018-06-11T10:22:01.648Z,28.35
2018-06-11T10:23:01.723Z,28.12
2018-06-11T10:24:01.799Z,28.00
2018-06-11T10:25:01.875Z,28.45
2018-06-11T10:26:01.940Z,28.39
2018-06-11T10:27:02.016Z,28.60
2018-06-11T10:28:02.092Z,28.48
2018-06-11T10:29:02.176Z,28.26
2018-06-11T10:30:02.237Z,28.51
2018-06-11T10:31:02.308Z,28.70
2018-06-11T10:32:02.381Z,28.89
2018-06-11T10:33:02.455Z,28.97
2018-06-11T10:34:02.535Z,29.19
2018-06-11T10:35:02.607Z,29.04
2018-06-11T10:36:02.672Z,28.74
2018-06-11T10:37:02.748Z,28.35
2018-06-11T10:38:02.824Z,27.92
2018-06-11T10:39:02.912Z,27.22
2018-06-11T10:40:02.973Z,27.37
2018-06-11T10:41:03.040Z,27.85
2018-06-11T10:42:03.115Z,28.12
2018-06-11T10:43:03.184Z,28.01
2018-06-11T10:44:03.272Z,28.07
2018-06-11T10:45:03.332Z,28.10
2018-06-11T10:46:03.405Z,28.26
2018-06-11T10:47:03.476Z,28.45
2018-06-11T10:48:03.548Z,28.10
2018-06-11T10:49:03.628Z,28.12
2018-06-11T10:50:03.704Z,28.35
2018-06-11T10:51:03.767Z,28.42
2018-06-11T10:52:03.836Z,28.39
2018-06-11T10:53:03.913Z,28.11
2018-06-11T10:54:03.988Z,28.29
2018-06-11T10:55:04.062Z,28.35
2018-06-11T10:56:04.128Z,28.45
2018-06-11T10:57:04.200Z,28.20
2018-06-11T10:58:04.330Z,28.17
2018-06-11T10:59:04.344Z,28.02
2018-06-11T11:00:04.569Z,28.20
2018-06-11T11:01:04.488Z,28.11
2018-06-11T11:02:04.560Z,27.80
2018-06-11T11:03:04.634Z,27.40
2018-06-11T11:04:04.704Z,27.67
2018-06-11T11:05:04.787Z,27.93
2018-06-11T11:06:04.857Z,27.44
2018-06-11T11:07:04.920Z,27.37
2018-06-11T11:08:04.993Z,27.17
2018-06-11T11:09:05.065Z,27.12
2018-06-11T11:10:05.293Z,27.25
2018-06-11T11:11:05.209Z,27.21
2018-06-11T11:12:05.284Z,26.93
2018-06-11T11:13:05.361Z,26.93
2018-06-11T11:14:05.425Z,27.25
2018-06-11T11:15:05.502Z,27.26
2018-06-11T11:16:05.580Z,27.48
2018-06-11T11:17:05.642Z,27.55
2018-06-11T11:18:05.713Z,27.60
2018-06-11T11:19:05.789Z,27.35
2018-06-11T11:20:05.866Z,27.37
2018-06-11T11:21:05.934Z,27.45
2018-06-11T11:22:06.004Z,27.47
2018-06-11T11:23:06.069Z,27.45
2018-06-11T11:24:06.143Z,27.51
2018-06-11T11:25:06.230Z,27.21
2018-06-11T11:26:06.285Z,27.03
2018-06-11T11:27:06.362Z,26.74
2018-06-11T11:28:06.430Z,26.99
2018-06-11T11:29:06.510Z,27.21
2018-06-11T11:30:06.578Z,27.45
2018-06-11T11:31:06.652Z,27.40
2018-06-11T11:32:06.718Z,27.29
2018-06-11T11:33:06.787Z,27.59
2018-06-11T11:34:06.859Z,27.30
2018-06-11T11:35:06.938Z,27.32
2018-06-11T11:36:07.011Z,27.29
2018-06-11T11:37:07.075Z,27.48
2018-06-11T11:38:07.147Z,27.60
2018-06-11T11:39:07.215Z,27.60
2018-06-11T11:40:07.287Z,27.48
2018-06-11T11:41:07.383Z,27.37
2018-06-11T11:42:07.431Z,27.37
2018-06-11T11:43:07.505Z,27.12
2018-06-11T11:44:07.574Z,27.12
2018-06-11T11:45:07.647Z,27.22
2018-06-11T11:46:07.723Z,27.55
2018-06-11T11:47:07.794Z,27.54
2018-06-11T11:48:07.859Z,27.54
2018-06-11T11:49:07.935Z,27.48
2018-06-11T11:50:08.003Z,27.27
2018-06-11T11:51:08.238Z,27.08
2018-06-11T11:52:08.147Z,27.25
2018-06-11T11:53:08.216Z,27.08
2018-06-11T11:54:08.287Z,27.14
2018-06-11T11:55:08.359Z,27.21
2018-06-11T11:56:08.439Z,27.45
2018-06-11T11:57:08.508Z,27.77
2018-06-11T11:58:08.576Z,27.68
2018-06-11T11:59:08.644Z,27.89
2018-06-11T12:00:08.716Z,27.90
2018-06-11T12:01:08.796Z,27.73
2018-06-11T12:02:08.864Z,27.68
2018-06-11T12:03:08.928Z,27.82
2018-06-11T12:04:08.999Z,27.58
2018-06-11T12:05:09.072Z,27.63
2018-06-11T12:06:09.296Z,27.67
2018-06-11T12:07:09.216Z,27.49
2018-06-11T12:08:09.285Z,27.59
2018-06-11T12:09:09.356Z,27.52
2018-06-11T12:10:09.428Z,27.82
2018-06-11T12:11:09.506Z,27.75
2018-06-11T12:12:09.576Z,27.60
2018-06-11T12:13:09.644Z,27.77
2018-06-11T12:14:09.712Z,27.93
2018-06-11T12:15:09.784Z,28.20
2018-06-11T12:16:09.860Z,28.39
2018-06-11T12:17:09.934Z,28.57
2018-06-11T12:18:10.002Z,28.45
2018-06-11T12:19:10.105Z,28.35
2018-06-11T12:20:10.140Z,28.14
2018-06-11T12:21:10.229Z,27.96
2018-06-11T12:22:10.285Z,27.89
2018-06-11T12:23:10.356Z,28.17
2018-06-11T12:24:10.429Z,28.42
2018-06-11T12:25:10.524Z,28.54
2018-06-11T12:26:10.576Z,28.69
2018-06-11T12:27:10.649Z,28.76
2018-06-11T12:28:10.713Z,28.82
2018-06-11T12:29:10.785Z,28.59
2018-06-11T12:30:10.857Z,27.89
2018-06-11T12:31:10.933Z,27.54
2018-06-11T12:32:11.026Z,27.32
2018-06-11T12:33:11.069Z,27.29
2018-06-11T12:34:11.140Z,27.42
2018-06-11T12:35:11.213Z,27.51
2018-06-11T12:36:11.306Z,27.55
2018-06-11T12:37:11.353Z,27.93
2018-06-11T12:38:11.425Z,27.59
2018-06-11T12:39:11.497Z,27.48
2018-06-11T12:40:11.570Z,27.55
2018-06-11T12:41:11.645Z,27.73
2018-06-11T12:42:11.717Z,28.14
2018-06-11T12:43:11.781Z,28.01
2018-06-11T12:44:11.853Z,27.89
2018-06-11T12:45:11.925Z,27.95
2018-06-11T12:46:12.002Z,27.89
2018-06-11T12:47:12.080Z,27.80
2018-06-11T12:48:12.137Z,27.87
2018-06-11T12:49:12.214Z,28.04
2018-06-11T12:50:12.277Z,28.07
2018-06-11T12:51:12.506Z,27.89
2018-06-11T12:52:12.422Z,27.92
2018-06-11T12:53:12.494Z,27.85